Time;durP1;ratioP1;P1;durP2;ratioP2;P2;SDS_P1;SDS_P2;PMS_P1;PMS_P2;Temp;Humidity;BMP_temperature;BMP_pressure;BME280_temperature;BME280_humidity;BME280_pressure;Samples;Min_cycle;Max_cycle;Signal;HPM_P1;HPM_P2
2023/10/20 00:01:39;;;;;;;17.25;11.02;;;8.30;99.90;;;;;;5091748;28;20111;-72
2023/10/20 00:04:05;;;;;;;19.13;11.23;;;8.30;99.90;;;;;;5092779;28;20036;-72
2023/10/20 00:06:30;;;;;;;18.80;11.02;;;8.30;99.90;;;;;;5092561;28;20511;-72
2023/10/20 00:08:56;;;;;;;20.75;11.73;;;8.40;99.90;;;;;;5092405;28;20048;-72
2023/10/20 00:11:25;;;;;;;22.50;11.93;;;8.30;99.90;;;;;;5091919;28;20075;-72
2023/10/20 00:13:51;;;;;;;18.45;12.38;;;8.30;99.90;;;;;;5092424;28;20043;-72
2023/10/20 00:16:27;;;;;;;20.23;11.90;;;8.30;99.90;;;;;;5091599;28;20047;-72
2023/10/20 00:18:53;;;;;;;18.88;11.88;;;8.30;99.90;;;;;;5092062;28;20089;-72
2023/10/20 00:21:19;;;;;;;22.13;12.68;;;8.40;99.90;;;;;;5091920;28;20066;-72
2023/10/20 00:23:44;;;;;;;21.65;12.20;;;8.30;99.90;;;;;;5092038;28;20108;-71
2023/10/20 00:26:11;;;;;;;19.00;12.10;;;8.30;99.90;;;;;;5092230;28;20039;-72
2023/10/20 00:28:36;;;;;;;18.92;12.15;;;8.20;99.90;;;;;;5092092;28;20042;-72
2023/10/20 00:31:02;;;;;;;20.63;12.32;;;8.30;99.90;;;;;;5073259;28;20056;-71
2023/10/20 00:33:27;;;;;;;20.25;13.07;;;8.30;99.90;;;;;;5092117;28;20078;-71
2023/10/20 00:35:53;;;;;;;22.73;12.88;;;8.20;99.90;;;;;;5092171;28;20044;-72
2023/10/20 00:38:19;;;;;;;24.58;13.15;;;8.30;99.90;;;;;;5092030;28;20090;-71
2023/10/20 00:40:45;;;;;;;24.65;12.98;;;8.30;99.90;;;;;;5091453;28;20040;-71
2023/10/20 00:43:11;;;;;;;24.33;12.52;;;8.30;99.90;;;;;;5091938;28;20036;-72
2023/10/20 00:45:39;;;;;;;20.77;13.32;;;8.30;99.90;;;;;;5073912;28;20058;-72
2023/10/20 00:48:09;;;;;;;24.75;15.25;;;8.20;99.90;;;;;;5091891;28;20417;-72
2023/10/20 00:50:35;;;;;;;25.40;14.18;;;8.30;99.90;;;;;;5091710;28;20042;-71
2023/10/20 00:53:02;;;;;;;25.55;14.52;;;8.20;99.90;;;;;;5092219;28;20031;-71
2023/10/20 00:55:28;;;;;;;23.65;13.30;;;8.30;99.90;;;;;;5091562;28;20511;-72
2023/10/20 00:57:54;;;;;;;28.65;12.90;;;8.30;99.90;;;;;;5073653;28;20085;-72
2023/10/20 01:00:20;;;;;;;26.27;14.27;;;8.30;99.90;;;;;;5091111;28;20056;-72
2023/10/20 01:02:46;;;;;;;24.77;13.88;;;8.30;99.90;;;;;;5091829;28;20036;-72
2023/10/20 01:05:19;;;;;;;23.55;14.55;;;8.20;99.90;;;;;;5091578;28;20040;-72
2023/10/20 01:07:45;;;;;;;23.33;14.32;;;8.30;99.90;;;;;;5091397;28;20090;-72
2023/10/20 01:10:10;;;;;;;26.83;14.73;;;8.20;99.90;;;;;;5091174;28;20040;-72
2023/10/20 01:12:36;;;;;;;26.70;15.40;;;8.20;99.90;;;;;;5073336;28;20039;-72
2023/10/20 01:15:05;;;;;;;33.90;15.25;;;8.20;99.90;;;;;;5091366;28;20044;-72
2023/10/20 01:17:31;;;;;;;33.20;16.45;;;8.20;99.90;;;;;;5073440;28;20075;-72
2023/10/20 01:20:00;;;;;;;31.75;16.88;;;8.20;99.90;;;;;;5090291;28;20074;-73
2023/10/20 01:22:26;;;;;;;29.40;15.00;;;8.30;99.90;;;;;;5073378;28;20176;-72
2023/10/20 01:24:51;;;;;;;31.90;17.00;;;8.10;99.90;;;;;;5073568;28;20120;-72
2023/10/20 01:27:17;;;;;;;32.15;16.95;;;8.20;99.90;;;;;;5092113;28;20089;-72
2023/10/20 01:29:43;;;;;;;35.30;17.80;;;8.10;99.90;;;;;;5076941;28;20406;-72
2023/10/20 01:32:08;;;;;;;30.20;15.65;;;8.20;99.90;;;;;;5076946;28;20054;-72
2023/10/20 01:34:35;;;;;;;31.40;16.15;;;8.30;99.90;;;;;;5077522;28;20047;-72
2023/10/20 01:37:02;;;;;;;30.80;16.52;;;8.30;99.90;;;;;;5077253;28;20098;-73
2023/10/20 01:39:29;;;;;;;31.83;17.67;;;8.20;99.90;;;;;;5076921;28;20045;-72
2023/10/20 01:41:55;;;;;;;30.20;15.82;;;8.30;99.90;;;;;;5095262;28;20089;-72
2023/10/20 01:44:21;;;;;;;32.13;16.55;;;8.20;99.90;;;;;;5060424;28;20043;-72
2023/10/20 01:46:49;;;;;;;26.63;14.98;;;8.20;99.90;;;;;;5077310;28;20036;-72
2023/10/20 01:49:17;;;;;;;27.20;16.55;;;8.20;99.90;;;;;;5077009;28;20082;-72
2023/10/20 01:51:42;;;;;;;30.85;15.50;;;8.20;99.90;;;;;;5076591;28;20051;-72
2023/10/20 01:54:08;;;;;;;30.10;16.80;;;8.30;99.90;;;;;;5077165;28;20052;-72
2023/10/20 01:56:34;;;;;;;26.95;15.38;;;8.30;99.90;;;;;;5076917;28;20043;-72
2023/10/20 01:58:59;;;;;;;30.67;16.95;;;8.20;99.90;;;;;;5075896;28;20402;-72
2023/10/20 02:01:25;;;;;;;25.50;14.75;;;8.20;99.90;;;;;;5076377;28;20028;-72
2023/10/20 02:03:51;;;;;;;31.83;16.05;;;8.20;99.90;;;;;;5076581;28;20032;-72
2023/10/20 02:06:17;;;;;;;29.38;16.95;;;8.30;99.90;;;;;;5076643;28;20081;-73
2023/10/20 02:08:42;;;;;;;28.95;15.38;;;8.30;99.90;;;;;;5076552;28;20058;-73
2023/10/20 02:11:08;;;;;;;28.40;16.73;;;8.20;99.90;;;;;;5076428;28;20101;-73
2023/10/20 02:13:35;;;;;;;28.95;15.98;;;8.20;99.90;;;;;;5094899;28;20526;-72
2023/10/20 02:16:01;;;;;;;31.10;15.73;;;8.20;99.90;;;;;;5076490;28;20077;-72
2023/10/20 02:18:26;;;;;;;28.17;15.48;;;8.20;99.90;;;;;;5094564;28;20040;-72
2023/10/20 02:20:57;;;;;;;26.98;15.85;;;8.30;99.90;;;;;;5076324;28;20032;-72
2023/10/20 02:23:22;;;;;;;32.58;16.25;;;8.30;99.90;;;;;;5076594;28;20147;-72
2023/10/20 02:25:59;;;;;;;33.10;18.08;;;8.20;99.90;;;;;;5076675;28;20068;-72
2023/10/20 02:28:26;;;;;;;30.33;15.68;;;8.20;99.90;;;;;;5076341;28;20043;-72
2023/10/20 02:30:52;;;;;;;27.35;16.70;;;8.30;99.90;;;;;;5076062;28;20089;-72
2023/10/20 02:33:18;;;;;;;29.08;16.00;;;8.30;99.90;;;;;;5076266;28;20044;-73
2023/10/20 02:35:44;;;;;;;31.67;17.17;;;8.30;99.90;;;;;;5075993;28;20109;-73
2023/10/20 02:38:10;;;;;;;32.40;17.25;;;8.30;99.90;;;;;;5076032;28;20071;-72
2023/10/20 02:40:35;;;;;;;27.02;16.20;;;8.30;99.90;;;;;;5092954;28;20036;-73
2023/10/20 02:43:01;;;;;;;32.45;16.70;;;8.20;99.90;;;;;;5076038;28;20550;-73
2023/10/20 02:45:26;;;;;;;31.27;16.80;;;8.20;99.90;;;;;;5076030;28;20086;-73
2023/10/20 02:47:52;;;;;;;31.35;16.50;;;8.30;99.90;;;;;;5075986;28;20040;-72
2023/10/20 02:50:18;;;;;;;30.88;15.80;;;8.20;99.90;;;;;;5093774;28;20119;-72
2023/10/20 02:52:44;;;;;;;29.77;17.05;;;8.30;99.90;;;;;;5094069;28;20066;-73
2023/10/20 02:55:09;;;;;;;30.23;17.60;;;8.20;99.90;;;;;;5075252;28;20055;-72
2023/10/20 02:57:38;;;;;;;32.13;16.77;;;8.30;99.90;;;;;;5093900;28;20039;-72
2023/10/20 03:00:04;;;;;;;32.03;17.45;;;8.30;99.90;;;;;;5093591;28;20036;-72
2023/10/20 03:02:30;;;;;;;30.65;16.90;;;8.20;99.90;;;;;;5075504;28;20120;-73
2023/10/20 03:04:56;;;;;;;32.78;16.23;;;8.20;99.90;;;;;;5093601;28;20028;-72
2023/10/20 03:07:25;;;;;;;31.95;16.92;;;8.20;99.90;;;;;;5074555;28;20514;-72
2023/10/20 03:09:51;;;;;;;25.75;15.07;;;8.20;99.90;;;;;;5092482;28;20037;-72
2023/10/20 03:12:17;;;;;;;30.35;16.42;;;8.20;99.90;;;;;;5092392;28;20036;-73
2023/10/20 03:14:44;;;;;;;29.23;15.50;;;8.20;99.90;;;;;;5092985;28;20566;-72
2023/10/20 03:17:11;;;;;;;31.10;15.85;;;8.20;99.90;;;;;;5074652;28;20491;-72
2023/10/20 03:19:37;;;;;;;26.48;15.48;;;8.10;99.90;;;;;;5093235;28;20044;-72
2023/10/20 03:22:02;;;;;;;29.67;15.77;;;8.10;99.90;;;;;;5092967;28;20514;-72
2023/10/20 03:24:28;;;;;;;24.42;15.38;;;8.10;99.90;;;;;;5093529;28;20039;-72
2023/10/20 03:26:54;;;;;;;28.08;15.90;;;8.20;99.90;;;;;;5093344;28;20036;-72
2023/10/20 03:29:20;;;;;;;25.80;16.67;;;8.20;99.90;;;;;;5092906;28;20044;-72
2023/10/20 03:31:46;;;;;;;27.50;14.85;;;8.20;99.90;;;;;;5092716;28;20067;-72
2023/10/20 03:34:11;;;;;;;24.23;14.68;;;8.20;99.90;;;;;;5092958;28;20063;-72
2023/10/20 03:36:37;;;;;;;26.73;16.08;;;8.10;99.90;;;;;;5093373;28;20081;-72
2023/10/20 03:39:14;;;;;;;30.25;16.02;;;8.10;99.90;;;;;;5093127;28;20042;-72
2023/10/20 03:41:40;;;;;;;32.13;15.80;;;8.10;99.90;;;;;;5074449;28;20629;-72
2023/10/20 03:44:07;;;;;;;24.88;14.50;;;8.10;99.90;;;;;;5092894;28;20028;-72
2023/10/20 03:46:43;;;;;;;24.20;14.60;;;8.10;99.90;;;;;;5074889;28;20036;-73
2023/10/20 03:49:08;;;;;;;27.58;15.93;;;8.10;99.90;;;;;;5093043;28;20089;-72
2023/10/20 03:51:37;;;;;;;23.92;14.68;;;8.10;99.90;;;;;;5074577;28;20036;-72
2023/10/20 03:54:05;;;;;;;22.48;14.18;;;8.10;99.90;;;;;;5092926;28;20051;-72
2023/10/20 03:56:34;;;;;;;24.45;14.10;;;8.10;99.90;;;;;;5092801;28;20048;-71
2023/10/20 03:59:01;;;;;;;25.60;14.52;;;8.10;99.90;;;;;;5074127;28;20044;-72
2023/10/20 04:01:27;;;;;;;30.20;14.05;;;8.00;99.90;;;;;;5073909;28;20542;-71
2023/10/20 04:03:53;;;;;;;21.60;13.20;;;8.10;99.90;;;;;;5092470;28;20032;-71
2023/10/20 04:06:19;;;;;;;24.73;13.85;;;8.00;99.90;;;;;;5092544;28;20058;-74
2023/10/20 04:08:45;;;;;;;18.58;11.77;;;8.10;99.90;;;;;;5074597;28;20040;-74
2023/10/20 04:11:12;;;;;;;20.33;12.20;;;8.10;99.90;;;;;;5092143;28;20089;-73
2023/10/20 04:13:39;;;;;;;21.65;12.57;;;8.00;99.90;;;;;;5074154;28;20044;-74
2023/10/20 04:16:16;;;;;;;20.25;12.40;;;8.10;99.90;;;;;;5074651;28;20118;-74
2023/10/20 04:18:43;;;;;;;17.15;11.15;;;8.00;99.90;;;;;;5074380;28;20040;-73
2023/10/20 04:21:11;;;;;;;21.52;12.50;;;8.10;99.90;;;;;;5092087;28;20054;-74
2023/10/20 04:23:37;;;;;;;17.77;11.02;;;8.10;99.90;;;;;;5074276;28;20040;-74
2023/10/20 04:26:15;;;;;;;16.60;10.70;;;8.10;99.90;;;;;;5074019;28;20042;-74
2023/10/20 04:28:42;;;;;;;17.33;11.05;;;8.10;99.90;;;;;;5074025;28;20036;-74
2023/10/20 04:52:55;;;;;;;14.55;8.95;;;8.10;99.90;;;;;;5003024;28;20049;-75
2023/10/20 04:57:56;;;;;;;13.95;8.32;;;8.10;99.90;;;;;;5091909;28;20040;-74
2023/10/20 05:06:19;;;;;;;13.05;8.40;;;8.20;99.90;;;;;;5073858;28;20052;-74
2023/10/20 05:08:36;;;;;;;12.25;7.53;;;8.10;99.90;;;;;;5059434;28;20047;-74
2023/10/20 05:10:55;;;;;;;12.38;7.47;;;8.20;99.90;;;;;;5069220;28;20487;-75
2023/10/20 05:13:22;;;;;;;13.45;8.38;;;8.10;99.90;;;;;;5073822;28;20376;-74
2023/10/20 05:15:48;;;;;;;10.95;7.45;;;8.20;99.90;;;;;;5091648;28;20043;-73
2023/10/20 05:18:14;;;;;;;11.93;7.47;;;8.20;99.90;;;;;;5073383;28;20043;-72
2023/10/20 05:20:41;;;;;;;12.90;7.45;;;8.20;99.90;;;;;;5091338;28;20048;-71
2023/10/20 05:23:07;;;;;;;9.13;7.55;;;8.20;99.90;;;;;;5073815;28;20423;-72
2023/10/20 05:25:35;;;;;;;9.98;7.28;;;8.20;99.90;;;;;;5073424;28;20044;-72
2023/10/20 05:28:01;;;;;;;13.55;8.35;;;8.10;99.90;;;;;;5073491;28;20079;-72
2023/10/20 05:30:27;;;;;;;10.57;7.75;;;8.20;99.90;;;;;;5073272;28;20467;-72
2023/10/20 05:32:53;;;;;;;11.10;7.50;;;8.20;99.90;;;;;;5073273;28;20048;-72
2023/10/20 05:35:18;;;;;;;8.45;6.53;;;8.20;99.90;;;;;;5073233;28;20468;-72
2023/10/20 05:37:44;;;;;;;10.15;7.53;;;8.20;99.90;;;;;;5073327;28;20414;-72
2023/10/20 05:40:13;;;;;;;11.88;7.35;;;8.20;99.90;;;;;;5073024;28;20040;-72
2023/10/20 05:42:38;;;;;;;10.75;7.07;;;8.30;99.90;;;;;;5091288;28;20040;-72
2023/10/20 05:45:17;;;;;;;9.93;7.10;;;8.30;99.90;;;;;;5091182;28;20081;-72
2023/10/20 05:47:43;;;;;;;13.10;6.85;;;8.20;99.90;;;;;;5073544;28;20069;-72
2023/10/20 05:50:09;;;;;;;8.25;6.22;;;8.30;99.90;;;;;;5072969;28;20495;-72
2023/10/20 05:52:35;;;;;;;9.15;6.45;;;8.30;99.90;;;;;;5072987;28;20127;-72
2023/10/20 05:55:03;;;;;;;9.25;6.00;;;8.30;99.90;;;;;;5090996;28;20093;-71
2023/10/20 05:57:29;;;;;;;9.75;6.28;;;8.30;99.90;;;;;;5073127;28;20092;-73
2023/10/20 05:59:55;;;;;;;8.73;5.63;;;8.30;99.90;;;;;;5090706;28;20044;-72
2023/10/20 06:02:21;;;;;;;9.38;6.32;;;8.30;99.90;;;;;;5091000;28;20037;-72
2023/10/20 06:04:46;;;;;;;11.63;7.00;;;8.30;99.90;;;;;;5091163;28;20120;-73
2023/10/20 06:07:12;;;;;;;8.95;5.63;;;8.30;99.90;;;;;;5091283;28;20078;-72
2023/10/20 06:09:38;;;;;;;11.10;6.05;;;8.30;99.90;;;;;;5072905;28;20471;-72
2023/10/20 06:12:06;;;;;;;9.30;5.88;;;8.30;99.90;;;;;;5072650;28;20044;-72
2023/10/20 06:14:32;;;;;;;8.60;5.97;;;8.30;99.90;;;;;;5073989;28;20052;-72
2023/10/20 06:16:58;;;;;;;7.82;5.43;;;8.40;99.90;;;;;;5094589;28;20229;-73
2023/10/20 06:19:24;;;;;;;8.75;5.25;;;8.30;99.90;;;;;;5076376;28;20040;-72
2023/10/20 06:21:50;;;;;;;8.10;4.60;;;8.40;99.90;;;;;;5076157;28;20091;-73
2023/10/20 06:24:16;;;;;;;9.10;4.80;;;8.40;99.90;;;;;;5094591;28;20047;-73
2023/10/20 06:26:42;;;;;;;6.07;3.92;;;8.40;99.90;;;;;;5076664;28;20040;-72
2023/10/20 06:35:00;;;;;;;8.07;3.80;;;8.40;99.90;;;;;;5012037;28;20054;-73
2023/10/20 06:37:31;;;;;;;6.13;3.70;;;8.30;99.90;;;;;;5062325;28;20058;-72
2023/10/20 06:39:56;;;;;;;6.97;3.50;;;8.40;99.90;;;;;;5075674;28;20509;-72
2023/10/20 06:42:24;;;;;;;7.50;3.90;;;8.40;99.90;;;;;;5093769;28;20036;-71
2023/10/20 06:44:50;;;;;;;6.00;3.30;;;8.40;99.90;;;;;;5093998;28;20138;-73
2023/10/20 06:47:16;;;;;;;4.43;3.67;;;8.40;99.90;;;;;;5093483;28;20089;-72
2023/10/20 06:49:42;;;;;;;4.22;2.80;;;8.40;99.90;;;;;;5093629;28;20040;-72
2023/10/20 06:52:08;;;;;;;5.13;3.10;;;8.40;99.90;;;;;;5093959;28;20036;-72
2023/10/20 06:54:33;;;;;;;6.32;3.17;;;8.30;99.90;;;;;;5093994;28;20389;-72
2023/10/20 06:56:59;;;;;;;5.25;3.10;;;8.20;99.90;;;;;;5075923;28;20491;-73
2023/10/20 06:59:24;;;;;;;4.57;3.45;;;8.20;99.90;;;;;;5075687;28;20075;-72
2023/10/20 07:01:51;;;;;;;3.00;2.55;;;8.20;99.90;;;;;;5093587;28;20146;-73
2023/10/20 07:04:16;;;;;;;4.35;3.13;;;8.20;99.90;;;;;;5075549;28;20040;-73
2023/10/20 07:06:42;;;;;;;4.47;2.80;;;8.20;99.90;;;;;;5094012;28;20100;-73
2023/10/20 07:09:12;;;;;;;6.30;2.83;;;8.20;99.90;;;;;;5093782;28;20051;-73
2023/10/20 07:11:39;;;;;;;4.53;3.10;;;8.10;99.90;;;;;;5093278;28;20044;-73
2023/10/20 07:14:05;;;;;;;5.32;2.50;;;8.20;99.90;;;;;;5093476;28;20036;-73
2023/10/20 07:16:31;;;;;;;5.63;2.78;;;8.20;99.90;;;;;;5075452;28;20077;-73
2023/10/20 07:18:57;;;;;;;4.20;2.42;;;8.10;99.90;;;;;;5075262;28;20039;-72
2023/10/20 07:21:22;;;;;;;4.82;2.80;;;8.00;99.90;;;;;;5075033;28;20461;-73
2023/10/20 07:23:48;;;;;;;5.82;2.15;;;8.00;99.90;;;;;;5093588;28;20059;-73
2023/10/20 07:26:17;;;;;;;3.17;2.40;;;8.00;99.90;;;;;;5093133;28;20077;-73
2023/10/20 07:28:43;;;;;;;4.10;2.67;;;8.00;99.90;;;;;;5092696;28;20044;-73
2023/10/20 07:31:16;;;;;;;4.38;2.80;;;7.90;99.90;;;;;;5092630;28;20043;-74
2023/10/20 07:33:41;;;;;;;5.60;2.72;;;8.00;99.90;;;;;;5093080;28;20036;-75
2023/10/20 07:36:07;;;;;;;3.60;2.55;;;7.90;99.90;;;;;;5093228;28;20098;-75
2023/10/20 07:38:33;;;;;;;4.93;3.20;;;7.80;99.90;;;;;;5075213;28;20474;-75
2023/10/20 07:41:10;;;;;;;4.20;2.70;;;7.90;99.90;;;;;;5074365;28;20568;-74
2023/10/20 07:43:36;;;;;;;5.15;3.72;;;7.80;99.90;;;;;;5092894;28;20542;-74
2023/10/20 07:46:02;;;;;;;4.78;3.22;;;7.80;99.90;;;;;;5093018;28;20063;-75
2023/10/20 07:48:28;;;;;;;6.90;3.30;;;7.80;99.90;;;;;;5074463;28;20085;-74
2023/10/20 07:50:56;;;;;;;7.22;3.33;;;7.80;99.90;;;;;;5092552;28;20040;-75
2023/10/20 07:53:22;;;;;;;5.35;3.13;;;7.80;99.90;;;;;;5074985;28;20119;-77
2023/10/20 07:55:47;;;;;;;5.38;3.33;;;7.70;99.90;;;;;;5075255;28;20068;-76
2023/10/20 07:58:13;;;;;;;5.20;3.70;;;7.80;99.90;;;;;;5074654;28;20101;-76
2023/10/20 08:00:39;;;;;;;5.90;3.47;;;7.90;99.90;;;;;;5092392;28;20046;-75
2023/10/20 08:03:06;;;;;;;6.60;4.05;;;7.90;99.90;;;;;;5057907;28;20036;-75
2023/10/20 08:05:35;;;;;;;5.75;3.78;;;7.90;99.90;;;;;;5075806;28;20548;-75
2023/10/20 08:08:04;;;;;;;5.00;3.47;;;7.80;99.90;;;;;;5073073;28;20044;-75
2023/10/20 08:10:30;;;;;;;4.95;3.22;;;7.90;99.90;;;;;;5074094;28;20040;-75
2023/10/20 08:12:56;;;;;;;5.15;3.10;;;7.90;99.90;;;;;;5073396;28;20526;-75
2023/10/20 08:15:22;;;;;;;4.97;3.10;;;7.80;99.90;;;;;;5093060;28;20047;-75
2023/10/20 08:17:48;;;;;;;4.30;3.35;;;7.90;99.90;;;;;;5075172;28;20510;-75
2023/10/20 08:20:14;;;;;;;5.65;2.95;;;7.80;99.90;;;;;;5074250;28;20526;-75
2023/10/20 08:22:40;;;;;;;5.82;3.42;;;7.90;99.90;;;;;;5092543;28;20036;-74
2023/10/20 08:25:08;;;;;;;4.95;2.97;;;7.90;99.90;;;;;;5074990;28;20085;-75
2023/10/20 08:27:34;;;;;;;5.07;3.28;;;7.80;99.90;;;;;;5092779;28;20043;-79
2023/10/20 08:32:28;;;;;;;4.43;2.80;;;7.90;99.90;;;;;;5049254;28;20053;-67
2023/10/20 08:34:54;;;;;;;6.20;3.05;;;7.90;99.90;;;;;;5051821;28;20041;-67
2023/10/20 08:37:20;;;;;;;3.80;3.00;;;7.80;99.90;;;;;;5050898;28;20110;-67
2023/10/20 08:39:45;;;;;;;5.35;3.22;;;7.90;99.90;;;;;;5051616;28;20036;-67
2023/10/20 08:42:18;;;;;;;3.80;2.85;;;7.80;99.90;;;;;;5051632;28;20033;-67
2023/10/20 08:44:45;;;;;;;5.47;2.75;;;7.70;99.90;;;;;;5052022;28;20033;-67
2023/10/20 08:47:15;;;;;;;4.15;2.50;;;7.80;99.90;;;;;;5051934;28;20048;-67
2023/10/20 08:49:41;;;;;;;5.70;2.70;;;7.70;99.90;;;;;;5051855;28;20094;-67
2023/10/20 08:52:08;;;;;;;4.63;2.60;;;7.70;99.90;;;;;;5051488;28;20041;-67
2023/10/20 08:54:34;;;;;;;3.70;2.80;;;7.70;99.90;;;;;;5051720;28;20063;-68
2023/10/20 08:57:00;;;;;;;4.40;2.90;;;7.70;99.90;;;;;;5051703;28;20408;-67
2023/10/20 08:59:25;;;;;;;4.43;2.42;;;7.70;99.90;;;;;;5051388;28;20037;-68
2023/10/20 09:01:51;;;;;;;3.28;2.33;;;7.70;99.90;;;;;;5051623;28;20037;-67
2023/10/20 09:04:24;;;;;;;4.78;2.40;;;7.70;99.90;;;;;;5051681;28;20041;-68
2023/10/20 09:06:51;;;;;;;3.63;2.42;;;7.70;99.90;;;;;;5051802;28;20040;-67
2023/10/20 09:09:17;;;;;;;3.17;2.25;;;7.70;99.90;;;;;;5051470;28;20507;-69
2023/10/20 09:11:43;;;;;;;5.07;2.35;;;7.70;99.90;;;;;;5051210;28;20047;-69
2023/10/20 09:14:12;;;;;;;3.03;1.67;;;7.70;99.90;;;;;;5051375;28;20045;-68
2023/10/20 09:16:42;;;;;;;4.50;2.28;;;7.70;99.90;;;;;;5051610;28;20049;-69
2023/10/20 09:19:12;;;;;;;3.60;2.25;;;7.70;99.90;;;;;;5051376;28;20137;-68
2023/10/20 09:21:41;;;;;;;3.75;1.73;;;7.60;99.90;;;;;;5050675;28;20029;-69
2023/10/20 09:24:08;;;;;;;4.80;2.53;;;7.60;99.90;;;;;;5050641;28;20045;-69
2023/10/20 09:26:36;;;;;;;3.13;1.60;;;7.70;99.90;;;;;;5051053;28;20130;-68
2023/10/20 09:29:05;;;;;;;2.60;1.63;;;7.60;99.90;;;;;;5051451;28;20461;-68
2023/10/20 09:31:32;;;;;;;5.53;1.75;;;7.60;99.90;;;;;;5016863;28;20047;-68
2023/10/20 09:33:58;;;;;;;2.83;1.73;;;7.60;99.90;;;;;;5050435;28;20102;-69
2023/10/20 09:36:24;;;;;;;2.15;1.95;;;7.60;99.90;;;;;;5051246;28;20465;-69
2023/10/20 09:38:54;;;;;;;3.65;1.80;;;7.60;99.90;;;;;;5051163;28;20076;-68
2023/10/20 09:41:22;;;;;;;2.40;1.67;;;7.50;99.90;;;;;;5050795;28;20546;-68
2023/10/20 09:43:53;;;;;;;4.13;1.23;;;7.60;99.90;;;;;;5051383;28;20033;-68
2023/10/20 09:46:54;;;;;;;1.55;1.05;;;7.50;99.90;;;;;;5051223;28;20103;-68
2023/10/20 09:49:26;;;;;;;3.28;1.35;;;7.50;99.90;;;;;;5053281;28;20041;-68
2023/10/20 09:51:54;;;;;;;2.08;1.23;;;7.50;99.90;;;;;;5054757;28;20575;-68
2023/10/20 09:54:24;;;;;;;1.88;1.13;;;7.50;99.90;;;;;;5036904;28;20566;-68
2023/10/20 09:56:51;;;;;;;3.42;1.55;;;7.50;99.90;;;;;;5054953;28;20474;-68
2023/10/20 09:59:20;;;;;;;1.58;0.98;;;7.50;99.90;;;;;;5036768;28;20531;-69
2023/10/20 10:01:46;;;;;;;1.92;0.90;;;7.50;99.90;;;;;;5054420;28;20405;-68
2023/10/20 10:04:12;;;;;;;1.63;0.80;;;7.50;99.90;;;;;;5036902;28;20445;-69
2023/10/20 10:06:38;;;;;;;1.52;1.02;;;7.50;99.90;;;;;;5054874;28;20075;-69
2023/10/20 10:09:05;;;;;;;1.38;0.80;;;7.50;99.90;;;;;;5054465;28;20087;-68
2023/10/20 10:11:37;;;;;;;1.95;1.17;;;7.50;99.90;;;;;;5054219;28;20040;-68
2023/10/20 10:14:07;;;;;;;2.28;1.13;;;7.50;99.90;;;;;;5054561;28;20044;-69
2023/10/20 10:16:48;;;;;;;1.88;1.08;;;7.40;99.90;;;;;;5054404;28;20040;-68
2023/10/20 10:19:16;;;;;;;1.23;1.02;;;7.40;99.90;;;;;;5019861;28;20036;-68
2023/10/20 10:21:42;;;;;;;2.92;1.42;;;7.40;99.90;;;;;;5036389;28;20098;-68
2023/10/20 10:24:16;;;;;;;1.10;0.57;;;7.40;99.90;;;;;;5054165;28;20465;-68
2023/10/20 10:26:45;;;;;;;0.98;0.80;;;7.40;99.90;;;;;;5036420;28;20488;-68
2023/10/20 10:29:11;;;;;;;1.23;0.80;;;7.40;99.90;;;;;;5054350;28;20132;-68
2023/10/20 10:31:36;;;;;;;2.63;1.02;;;7.30;99.90;;;;;;5035955;28;20512;-69
2023/10/20 10:34:05;;;;;;;2.30;1.00;;;7.40;99.90;;;;;;5036219;28;20230;-69
2023/10/20 10:36:47;;;;;;;1.55;0.80;;;7.30;99.90;;;;;;5020140;28;20408;-69
2023/10/20 10:39:29;;;;;;;2.30;1.70;;;7.40;99.90;;;;;;5053956;28;20465;-69
2023/10/20 10:42:02;;;;;;;1.95;0.95;;;7.30;99.90;;;;;;5053906;28;20514;-69
2023/10/20 10:44:37;;;;;;;2.67;1.25;;;7.30;99.90;;;;;;5054288;28;20053;-69
2023/10/20 10:47:04;;;;;;;2.20;1.67;;;7.20;99.90;;;;;;5054148;28;20044;-69
2023/10/20 10:49:33;;;;;;;2.45;1.10;;;7.30;99.90;;;;;;5053974;28;20053;-68
2023/10/20 10:52:07;;;;;;;2.20;1.00;;;7.20;99.90;;;;;;5053792;28;20041;-69
2023/10/20 10:54:33;;;;;;;1.05;0.60;;;7.30;99.90;;;;;;5035703;28;20063;-69
2023/10/20 10:57:03;;;;;;;2.85;1.08;;;7.20;99.90;;;;;;5053172;28;20033;-69
2023/10/20 10:59:30;;;;;;;1.42;0.77;;;7.20;99.90;;;;;;5052893;28;20040;-69
2023/10/20 11:01:56;;;;;;;1.25;0.80;;;7.20;99.90;;;;;;5052786;28;20519;-69
2023/10/20 11:04:23;;;;;;;1.40;0.95;;;7.20;99.90;;;;;;5053085;28;20033;-69
2023/10/20 11:06:49;;;;;;;1.30;0.80;;;7.20;99.90;;;;;;5035654;28;20416;-69
2023/10/20 11:09:19;;;;;;;1.95;0.80;;;7.20;99.90;;;;;;5053511;28;20037;-69
2023/10/20 11:11:47;;;;;;;1.05;0.65;;;7.20;99.90;;;;;;5034998;28;20041;-68
2023/10/20 11:14:17;;;;;;;1.45;0.98;;;7.20;99.90;;;;;;5052961;28;20523;-68
2023/10/20 11:16:43;;;;;;;1.30;0.70;;;7.20;99.90;;;;;;5035682;28;20049;-68
2023/10/20 11:19:12;;;;;;;1.52;0.90;;;7.10;99.90;;;;;;5053206;28;20493;-67
2023/10/20 11:21:46;;;;;;;1.40;1.00;;;7.10;99.90;;;;;;5053120;28;20116;-68
2023/10/20 11:24:11;;;;;;;0.98;0.50;;;7.20;99.90;;;;;;5035439;28;20029;-68
2023/10/20 11:26:37;;;;;;;3.13;0.90;;;7.20;99.90;;;;;;5053220;28;20385;-68
2023/10/20 11:29:06;;;;;;;1.08;0.65;;;7.20;99.90;;;;;;5053183;28;20072;-69
2023/10/20 11:31:31;;;;;;;1.30;0.95;;;7.10;99.90;;;;;;5052599;28;20412;-68
2023/10/20 11:33:58;;;;;;;0.88;0.75;;;7.10;99.90;;;;;;5018717;28;20048;-69
2023/10/20 11:36:23;;;;;;;2.00;0.93;;;7.10;99.90;;;;;;5034724;28;20041;-69
2023/10/20 11:38:49;;;;;;;1.45;0.75;;;7.10;99.90;;;;;;5018265;28;20047;-69
2023/10/20 11:41:14;;;;;;;1.85;0.80;;;7.20;99.90;;;;;;5034159;28;20040;-69
2023/10/20 11:43:40;;;;;;;2.35;1.02;;;7.20;99.90;;;;;;5034497;28;20404;-70
2023/10/20 11:46:10;;;;;;;1.40;0.80;;;7.10;99.90;;;;;;5017930;28;20078;-69
2023/10/20 11:48:35;;;;;;;1.20;0.73;;;7.20;99.90;;;;;;5052363;28;20087;-69
2023/10/20 11:51:01;;;;;;;1.45;1.00;;;7.10;99.90;;;;;;5051956;28;20531;-69
2023/10/20 11:53:27;;;;;;;1.33;0.98;;;7.10;99.90;;;;;;5034764;28;20524;-69
2023/10/20 11:55:52;;;;;;;1.10;0.75;;;7.20;99.90;;;;;;5052651;28;20126;-69
2023/10/20 11:58:18;;;;;;;1.88;1.10;;;7.20;99.90;;;;;;5034679;28;20055;-69
2023/10/20 12:00:44;;;;;;;1.30;0.95;;;7.10;99.90;;;;;;5050699;28;20041;-71
2023/10/20 12:03:09;;;;;;;1.50;0.98;;;7.20;99.90;;;;;;5017633;28;20060;-71
2023/10/20 12:05:39;;;;;;;2.15;0.65;;;7.10;99.90;;;;;;5034435;28;20067;-72
2023/10/20 12:08:05;;;;;;;2.08;1.20;;;7.20;99.90;;;;;;5034467;28;20504;-72
2023/10/20 12:10:31;;;;;;;0.95;0.75;;;7.10;99.90;;;;;;5034152;28;20048;-71
2023/10/20 12:13:02;;;;;;;1.23;0.95;;;7.20;99.90;;;;;;5034471;28;20041;-72
2023/10/20 12:15:29;;;;;;;1.45;1.00;;;7.10;99.90;;;;;;5034643;28;20044;-72
2023/10/20 12:17:55;;;;;;;0.98;0.90;;;7.20;99.90;;;;;;5052371;28;20086;-72
2023/10/20 12:20:21;;;;;;;1.00;0.88;;;7.10;99.90;;;;;;5051913;28;20439;-72
2023/10/20 12:22:47;;;;;;;1.77;0.80;;;7.20;99.90;;;;;;5034561;28;20044;-72
2023/10/20 12:25:12;;;;;;;9.30;1.40;;;7.20;99.90;;;;;;5052235;28;20130;-72
2023/10/20 12:27:38;;;;;;;0.88;0.80;;;7.20;99.90;;;;;;5051961;28;20039;-72
2023/10/20 12:30:04;;;;;;;1.80;1.02;;;7.10;99.90;;;;;;5034101;28;20044;-72
2023/10/20 12:32:30;;;;;;;1.35;0.70;;;7.10;99.90;;;;;;5051903;28;20044;-73
2023/10/20 12:34:55;;;;;;;2.63;1.02;;;7.20;99.90;;;;;;5051870;28;20032;-72
2023/10/20 12:37:21;;;;;;;1.55;0.80;;;7.10;99.90;;;;;;5034137;28;20492;-73
2023/10/20 12:39:46;;;;;;;1.73;1.13;;;7.10;99.90;;;;;;5051651;28;20036;-72
2023/10/20 12:42:13;;;;;;;1.23;0.77;;;7.10;99.90;;;;;;5051557;28;20128;-72
2023/10/20 12:44:39;;;;;;;1.95;1.13;;;7.10;99.90;;;;;;5052123;28;20119;-72
2023/10/20 12:47:06;;;;;;;1.17;0.90;;;7.10;99.90;;;;;;5034178;28;20052;-72
2023/10/20 12:49:31;;;;;;;1.42;0.60;;;7.00;99.90;;;;;;5033892;28;20538;-71
2023/10/20 12:51:57;;;;;;;1.13;0.90;;;7.10;99.90;;;;;;5051637;28;20075;-72
2023/10/20 12:54:23;;;;;;;1.40;0.65;;;7.10;99.90;;;;;;5034215;28;20079;-72
2023/10/20 12:56:48;;;;;;;1.50;0.80;;;7.10;99.90;;;;;;5033933;28;20072;-72
2023/10/20 12:59:14;;;;;;;1.80;0.80;;;7.20;99.90;;;;;;5033994;28;20444;-72
2023/10/20 13:01:40;;;;;;;0.88;0.65;;;7.20;99.90;;;;;;5051313;28;20033;-71
2023/10/20 13:04:07;;;;;;;1.42;0.90;;;7.10;99.90;;;;;;5051021;28;20471;-72
2023/10/20 13:06:35;;;;;;;1.50;0.70;;;7.20;99.90;;;;;;5051145;28;20524;-71
2023/10/20 13:09:01;;;;;;;0.85;0.60;;;7.30;99.90;;;;;;5051582;28;20037;-72
2023/10/20 13:11:26;;;;;;;1.20;0.90;;;7.20;99.90;;;;;;5047158;28;20045;-73
2023/10/20 13:13:52;;;;;;;1.10;0.70;;;7.20;99.90;;;;;;5031757;28;20091;-73
2023/10/20 13:16:18;;;;;;;1.40;0.88;;;7.30;99.90;;;;;;5033770;28;20044;-73
2023/10/20 13:18:43;;;;;;;0.73;0.55;;;7.30;99.90;;;;;;5033756;28;20414;-73
2023/10/20 13:21:09;;;;;;;1.75;0.70;;;7.20;99.90;;;;;;5033466;28;20040;-72
2023/10/20 13:23:35;;;;;;;0.88;0.63;;;7.20;99.90;;;;;;5034773;28;20615;-72
2023/10/20 13:26:05;;;;;;;2.63;1.42;;;7.30;99.90;;;;;;5055454;28;20040;-72
2023/10/20 13:28:34;;;;;;;2.45;1.70;;;7.30;99.90;;;;;;5055433;28;20397;-73